Flight Track Log - Related Links

Times and Time Zones

All times are in EDT time to prevent confusion due to time zone crossing. See the N7054S flight status page for this flight to view local times or setup timezone preferences in your user account.

Time Position Orientation Groundspeed Altitude Reporting Facility
EDT Latitude Longitude Course Direction KTS MPH feet Rate Location/Type
Thu 04:33:17 PM 39.8453 -86.2792 20° North 68 78 7,000  Level Indianapolis Center
Thu 04:34:19 PM 39.8703 -86.2672 20° North 83 96 7,000 -1,887 Level Indianapolis Center
Thu 04:35:21 PM 39.8875 -86.2314 58° Northeast 120 138 3,100 -2,438 Descending Indianapolis Center
Thu 04:35:55 PM 39.9000 -86.2000 63° Northeast 142 163 3,100 319 Level Indianapolis TRACON
Thu 04:36:55 PM 39.9167 -86.1667 57° Northeast 120 138 3,600 550 Climbing Indianapolis TRACON
Thu 04:37:55 PM 39.9167 -86.1333 90° East 107 123 4,200 587 Climbing Indianapolis TRACON
Thu 04:38:27 PM 39.9244 -86.1167 59° Northeast 115 132 4,500 638 Climbing Indianapolis Center
Thu 04:39:29 PM 39.9292 -86.0681 83° East 114 131 5,200 629 Climbing Indianapolis Center
Thu 04:40:31 PM 39.9314 -86.0275 86° East 112 129 5,800 581 Climbing Indianapolis Center
Thu 04:41:33 PM 39.9339 -85.9872 85° East 112 129 6,400 532 Climbing Indianapolis Center
Thu 04:42:35 PM 39.9364 -85.9472 85° East 112 129 6,900 339 Climbing Indianapolis Center
Thu 04:43:37 PM 39.9381 -85.9044 87° East 115 132 7,100 97 Climbing Indianapolis Center
Thu 04:44:39 PM 39.9386 -85.8544 89° East 131 151 7,100  Level Indianapolis Center
Thu 04:45:41 PM 39.9397 -85.7931 89° East 139 160 7,100  Level Indianapolis Center
Thu 04:46:44 PM 39.9431 -85.7408 85° East 143 165 7,100  Level Indianapolis Center
Thu 04:47:46 PM 39.9456 -85.6900 86° East 143 165 7,100  Level Indianapolis Center
Thu 04:48:48 PM 39.9486 -85.6389 86° East 142 163 7,100  Level Indianapolis Center
Thu 04:49:50 PM 39.9511 -85.5861 86° East 144 166 7,100 -48 Level Indianapolis Center
Thu 04:50:52 PM 39.9533 -85.5339 87° East 145 167 7,000  Descending Indianapolis Center
Thu 04:51:54 PM 39.9547 -85.4725 88° East 143 165 7,100 48 Climbing Indianapolis Center
Thu 04:52:56 PM 39.9572 -85.4225 86° East 141 162 7,100  Level Indianapolis Center
Thu 04:53:58 PM 39.9608 -85.3711 85° East 141 162 7,100  Level Indianapolis Center
Thu 04:55:00 PM 39.9644 -85.3197 85° East 143 165 7,100 71 Level Indianapolis Center
Thu 04:55:22 PM 39.9658 -85.2944 86° East 147 169 7,200  Climbing Indianapolis Center
Thu 04:56:02 PM 39.9656 -85.2675 91° East 144 166 7,100 -59 Descending Indianapolis Center
Thu 04:57:04 PM 39.9683 -85.2089 86° East 139 160 7,100 48 Level Indianapolis Center
Thu 04:58:06 PM 39.9683 -85.1583 90° East 139 160 7,200 49 Climbing Indianapolis Center
Thu 04:59:07 PM 39.9719 -85.1044 85° East 142 163 7,200  Level Indianapolis Center
Thu 05:00:10 PM 39.9753 -85.0556 85° East 143 165 7,200 -48 Level Indianapolis Center
Thu 05:01:12 PM 39.9789 -85.0042 85° East 143 165 7,100  Descending Indianapolis Center
Thu 05:02:10 PM 39.9814 -84.9450 87° East 144 166 7,200  Climbing Indianapolis Center
Thu 05:03:10 PM 39.9858 -84.8936 84° East 146 168 7,100  Descending Indianapolis Center
Thu 05:04:11 PM 39.9883 -84.8394 87° East 146 168 7,200  Climbing Indianapolis Center
Thu 05:05:18 PM 39.9911 -84.7800 86° East 145 167 7,100 -47 Descending Indianapolis Center
Thu 05:06:19 PM 39.9933 -84.7286 87° East 148 170 7,100 49 Level Indianapolis Center
Thu 05:07:20 PM 39.9978 -84.6747 84° East 148 170 7,200  Climbing Indianapolis Center
Thu 05:08:27 PM 40.0022 -84.6217 84° East 142 163 7,100 -93 Descending Indianapolis Center
Thu 05:09:29 PM 40.0044 -84.5689 87° East 143 165 7,000 -48 Descending Indianapolis Center
Thu 05:10:31 PM 40.0081 -84.5156 85° East 146 168 7,000 48 Level Indianapolis Center
Thu 05:11:33 PM 40.0114 -84.4622 85° East 147 169 7,100 50 Climbing Indianapolis Center
Thu 05:12:31 PM 40.0178 -84.4047 82° East 149 171 7,100  Level Indianapolis Center
Thu 05:13:25 PM 40.0217 -84.3561 84° East 145 167 7,100  Level Indianapolis Center
Thu 05:14:32 PM 40.0242 -84.2992 87° East 145 167 7,100  Level Indianapolis Center
Thu 05:15:41 PM 40.0294 -84.2403 83° East 146 168 7,100  Level Indianapolis Center
Thu 05:16:34 PM 40.0308 -84.1883 88° East 150 173 7,100 -48 Level Indianapolis Center
Thu 05:17:45 PM 40.0347 -84.1322 85° East 147 169 7,000  Descending Indianapolis Center
Thu 05:18:24 PM 40.0383 -84.0911 83° East 149 171 7,100  Climbing Indianapolis Center
Thu 05:18:47 PM 40.0394 -84.0769 84° East 150 173 7,000  Descending Indianapolis Center
Thu 05:19:31 PM 40.0431 -84.0319 84° East 149 171 7,100  Climbing Indianapolis Center
Thu 05:19:49 PM 40.0450 -84.0139 82° East 150 173 7,000 98 Descending Indianapolis Center
Thu 05:20:32 PM 40.0472 -83.9753 86° East 146 168 7,200 97 Climbing Indianapolis Center
Thu 05:20:51 PM 40.0492 -83.9606 80° East 147 169 7,100  Descending Indianapolis Center
Thu 05:21:27 PM 40.0511 -83.9267 86° East 149 171 7,200  Climbing Indianapolis Center
Thu 05:21:53 PM 40.0542 -83.9061 79° East 148 170 7,100  Descending Indianapolis Center
Thu 05:22:28 PM 40.0572 -83.8728 83° East 149 171 7,200  Climbing Indianapolis Center
Thu 05:22:55 PM 40.0592 -83.8514 83° East 150 173 7,100 -100 Descending Indianapolis Center
Thu 05:23:28 PM 40.0614 -83.8189 85° East 151 174 7,100 -95 Level Indianapolis Center
Thu 05:23:58 PM 40.0653 -83.7964 77° East 151 174 7,000 88 Descending Indianapolis Center
Thu 05:24:36 PM 40.0681 -83.7569 85° East 151 174 7,200  Climbing Indianapolis Center
Thu 05:25:00 PM 40.0714 -83.7422 74° East 150 173 7,000  Descending Indianapolis Center
Thu 05:25:37 PM 40.0742 -83.7033 85° East 146 168 7,200 97 Climbing Indianapolis Center
Thu 05:26:02 PM 40.0769 -83.6886 76° East 148 170 7,100  Descending Indianapolis Center
Thu 05:26:37 PM 40.0800 -83.6522 84° East 143 165 7,200  Climbing Indianapolis Center
Thu 05:27:04 PM 40.0811 -83.6364 85° East 145 167 7,100  Descending Indianapolis Center
Thu 05:27:32 PM 40.0836 -83.6036 84° East 146 168 7,200 -97 Climbing Indianapolis Center
Thu 05:28:06 PM 40.0864 -83.5742 83° East 146 168 7,000 -90 Descending Indianapolis Center
Thu 05:28:39 PM 40.0878 -83.5442 87° East 148 170 7,100 97 Climbing Indianapolis Center
Thu 05:29:08 PM 40.0911 -83.5200 80° East 147 169 7,100  Level Indianapolis Center
Thu 05:29:34 PM 40.0936 -83.4958 82° East 146 168 7,100  Level Indianapolis Center
Thu 05:30:10 PM 40.0950 -83.4664 86° East 147 169 7,100  Level Indianapolis Center
Thu 05:31:12 PM 40.0997 -83.4122 83° East 147 169 7,100  Level Indianapolis Center
Thu 05:33:16 PM 40.1061 -83.3061 85° East 146 168 7,100  Level Indianapolis Center
Thu 05:33:38 PM 40.1064 -83.2847 89° East 145 167 7,100  Level Indianapolis Center
Thu 05:34:18 PM 40.1092 -83.2533 83° East 145 167 7,100  Level Indianapolis Center
Thu 05:35:20 PM 40.1131 -83.2003 85° East 145 167 7,100  Level Indianapolis Center
Thu 05:35:40 PM 40.1142 -83.1764 87° East 141 162 7,100  Level Indianapolis Center
Thu 05:36:22 PM 40.1167 -83.1486 83° East 143 165 7,100  Level Indianapolis Center
Thu 05:37:24 PM 40.1225 -83.0856 83° East 145 167 7,100  Level Indianapolis Center
Thu 05:38:36 PM 40.1250 -83.0194 87° East 149 171 7,100  Level Indianapolis Center
Thu 05:39:28 PM 40.1289 -82.9758 83° East 149 171 7,100  Level Indianapolis Center
Thu 05:40:30 PM 40.1333 -82.9208 84° East 150 173 7,100  Level Indianapolis Center
Thu 05:41:32 PM 40.1372 -82.8692 84° East 144 166 7,100  Level Indianapolis Center
Thu 05:42:40 PM 40.1414 -82.8061 85° East 149 171 7,100  Level Indianapolis Center
Thu 05:43:36 PM 40.1453 -82.7592 84° East 153 176 7,100  Level Indianapolis Center
Thu 05:43:52 PM 40.1456 -82.7411 89° East 147 169 7,100  Level Indianapolis Center
Thu 05:44:38 PM 40.1492 -82.6981 84° East 145 167 7,100 98 Level Indianapolis Center
Thu 05:44:53 PM 40.1492 -82.6869 90° East 146 168 7,200  Climbing Indianapolis Center
Thu 05:45:41 PM 40.1519 -82.6453 85° East 144 166 7,100 -52 Descending Indianapolis Center
Thu 05:46:49 PM 40.1494 -82.5861 93° East 150 173 7,100  Level Indianapolis Center
Thu 05:47:45 PM 40.1531 -82.5361 85° East 149 171 7,100  Level Indianapolis Center
Thu 05:48:47 PM 40.1572 -82.4808 84° East 150 173 7,100  Level Indianapolis Center
Thu 05:49:49 PM 40.1600 -82.4247 86° East 153 176 7,100  Level Indianapolis Center
Thu 05:50:51 PM 40.1633 -82.3697 85° East 151 174 7,100  Level Indianapolis Center
Thu 05:51:53 PM 40.1675 -82.3147 84° East 150 173 7,100  Level Indianapolis Center
Thu 05:52:55 PM 40.1719 -82.2489 85° East 155 178 7,100 -48 Level Indianapolis Center
Thu 05:53:57 PM 40.1747 -82.1933 86° East 152 175 7,000  Descending Indianapolis Center
Thu 05:54:59 PM 40.1786 -82.1381 85° East 151 174 7,100 48 Climbing Indianapolis Center
Thu 05:56:01 PM 40.1817 -82.0817 86° East 155 178 7,100  Level Indianapolis Center
Thu 05:57:03 PM 40.1856 -82.0247 85° East 154 177 7,100  Level Indianapolis Center
Thu 05:58:05 PM 40.1892 -81.9697 85° East 151 174 7,100  Level Indianapolis Center
Thu 05:59:07 PM 40.1942 -81.9147 83° East 152 175 7,100 48 Level Indianapolis Center
Thu 06:00:09 PM 40.2000 -81.8522 83° East 146 168 7,200  Climbing Indianapolis Center
Thu 06:01:11 PM 40.2047 -81.7992 83° East 147 169 7,100 -48 Descending Indianapolis Center
Thu 06:02:13 PM 40.2086 -81.7461 85° East 148 170 7,100  Level Indianapolis Center
Thu 06:03:15 PM 40.2133 -81.6914 84° East 150 173 7,100  Level Indianapolis Center
Thu 06:04:17 PM 40.2178 -81.6372 84° East 150 173 7,100  Level Indianapolis Center
Thu 06:05:10 PM 40.2253 -81.5864 79° East 152 175 7,100  Level Cleveland Center
Thu 06:06:10 PM 40.2278 -81.5322 87° East 152 175 7,100  Level Cleveland Center
Thu 06:07:10 PM 40.2303 -81.4750 87° East 152 175 7,100  Level Cleveland Center
Thu 06:08:10 PM 40.2328 -81.4233 86° East 152 175 7,100  Level Cleveland Center
Thu 06:09:10 PM 40.2353 -81.3717 86° East 147 169 7,100  Level Cleveland Center
Thu 06:10:10 PM 40.2356 -81.3200 90° East 142 163 7,100  Level Cleveland Center
Thu 06:11:10 PM 40.2381 -81.2683 86° East 142 163 7,100  Level Cleveland Center
Thu 06:12:10 PM 40.2406 -81.2142 87° East 142 163 7,100  Level Cleveland Center
Thu 06:13:10 PM 40.2428 -81.1625 87° East 142 163 7,100 -350 Level Cleveland Center
Thu 06:14:10 PM 40.2411 -81.1081 92° East 142 163 6,400 -650 Descending Cleveland Center
Thu 06:15:10 PM 40.2456 -81.0508 84° East 142 163 5,800 -550 Descending Cleveland Center
Thu 06:16:10 PM 40.2478 -80.9911 87° East 148 170 5,300 -400 Descending Cleveland Center
Thu 06:17:10 PM 40.2500 -80.9394 87° East 148 170 5,000 -100 Descending Cleveland Center
Thu 06:18:10 PM 40.2544 -80.8906 83° East 141 162 5,100 50 Climbing Cleveland Center
Thu 06:19:10 PM 40.2608 -80.8389 81° East 141 162 5,100  Level Cleveland Center
Thu 06:20:10 PM 40.2650 -80.7900 84° East 141 162 5,100  Level Cleveland Center
Thu 06:21:10 PM 40.2714 -80.7381 81° East 141 162 5,100 -250 Level Cleveland Center
Thu 06:22:10 PM 40.2778 -80.6864 81° East 141 162 4,600 -550 Descending Cleveland Center
Thu 06:23:10 PM 40.2819 -80.6319 84° East 141 162 4,000 -350 Descending Cleveland Center
Thu 06:24:10 PM 40.2881 -80.5831 81° East 141 162 3,900 -200 Descending Cleveland Center
Thu 06:25:10 PM 40.2944 -80.5286 81° East 141 162 3,600 -400 Descending Cleveland Center
Thu 06:26:10 PM 40.3006 -80.4714 82° East 141 162 3,100 -500 Descending Cleveland Center
Thu 06:28:00 PM 40.3062 -80.3777 85° East  Level FlightAware Approximate
Thu 06:35:00 PM 40.3340 -80.0208 79° East  Level FlightAware Approximate
Thu 06:36:00 PM 40.3418 -79.9705 79° East  Level FlightAware Approximate
Thu 06:37:00 PM 40.3494 -79.9202 79° East  Level FlightAware Approximate
Thu 06:38:00 PM 40.3500 -79.9167 79° East  Level FlightAware Approximate
Thu 06:39:00 PM 40.3544 -79.9302 79° East  Level Estimated
Thu 06:40:00 PM 40.3544 -79.9302 79° East  Level Estimated
Thu 06:41:00 PM 40.3544 -79.9302 79° East  Level Estimated
Thu 06:42:00 PM 40.3544 -79.9302 79° East  Level Estimated
Thu 06:43:00 PM 40.3544 -79.9302 79° East  Level Estimated
Thu 06:44:00 PM 40.3544 -79.9302 79° East  Level Estimated
Thu 06:45:00 PM 40.3544 -79.9302 79° East  Level Estimated
Thu 06:46:00 PM 40.3544 -79.9302 79° East  Level Estimated
Thu 06:47:00 PM 40.3544 -79.9302 79° East  Level Estimated
Thu 06:48:00 PM 40.3544 -79.9302 79° East  Level Estimated

Login

Don't have an account? Register now (free) for customized features, flight alerts, and more!